Allerton, Iowa
Current Conditions -  °F | °C
As of 7:55 PM on Sunday 21 Dec 2014 (Local Time) from KCNC Reporting Station
Overcast Overcast  
Wind Chill: 32°   Ceiling: 800
Heat Index: 41°   Visibility: 10mi
Dew Point: 39°   Wind: 17mph
Humidity: 93%   Direction: 160°SSE
Pressure: 29.8"   Gusts: NA
Location:  40.71°N, 93.37°W
Report Text: KCNC 220155Z AUTO 16015KT 10SM OVC008 05/04 A2980 RMK AO2
Loading
Personal Weather Stations






























Interactive Weather Map New forecast layout! Learn more

10-Day Weather Forecast

Advertisements
Track Severe Weather on mobile